sensor_id;sensor_type;location;lat;lon;timestamp;pressure;altitude;pressure_sealevel;temperature;humidity
11038;BME280;5572;49.540;11.932;2024-01-27T00:00:25;98399.97;;;4.32;100.00
11038;BME280;5572;49.540;11.932;2024-01-27T00:02:59;98420.34;;;4.39;100.00
11038;BME280;5572;49.540;11.932;2024-01-27T00:05:30;98415.84;;;4.46;100.00
11038;BME280;5572;49.540;11.932;2024-01-27T00:08:02;98427.97;;;4.36;100.00
11038;BME280;5572;49.540;11.932;2024-01-27T00:10:39;98418.72;;;4.38;100.00
11038;BME280;5572;49.540;11.932;2024-01-27T00:13:17;98431.47;;;4.30;100.00
11038;BME280;5572;49.540;11.932;2024-01-27T00:15:53;98440.91;;;4.26;100.00
11038;BME280;5572;49.540;11.932;2024-01-27T00:18:30;98437.03;;;4.28;100.00
11038;BME280;5572;49.540;11.932;2024-01-27T00:21:06;98442.38;;;4.28;100.00
11038;BME280;5572;49.540;11.932;2024-01-27T00:23:40;98441.16;;;4.31;100.00
11038;BME280;5572;49.540;11.932;2024-01-27T00:26:15;98439.69;;;4.35;100.00
11038;BME280;5572;49.540;11.932;2024-01-27T00:28:46;98443.16;;;4.16;100.00
11038;BME280;5572;49.540;11.932;2024-01-27T00:31:21;98441.50;;;4.15;100.00
11038;BME280;5572;49.540;11.932;2024-01-27T00:34:00;98447.22;;;3.93;100.00
11038;BME280;5572;49.540;11.932;2024-01-27T00:36:30;98450.50;;;3.88;100.00
11038;BME280;5572;49.540;11.932;2024-01-27T00:39:06;98443.13;;;3.90;100.00
11038;BME280;5572;49.540;11.932;2024-01-27T00:41:40;98452.53;;;3.80;100.00
11038;BME280;5572;49.540;11.932;2024-01-27T00:44:12;98451.34;;;3.89;100.00
11038;BME280;5572;49.540;11.932;2024-01-27T00:46:45;98464.25;;;3.72;100.00
11038;BME280;5572;49.540;11.932;2024-01-27T00:49:23;98460.94;;;3.70;100.00
11038;BME280;5572;49.540;11.932;2024-01-27T00:51:58;98464.84;;;3.68;100.00
11038;BME280;5572;49.540;11.932;2024-01-27T00:54:29;98469.53;;;3.59;100.00
11038;BME280;5572;49.540;11.932;2024-01-27T00:57:00;98463.63;;;3.70;100.00
11038;BME280;5572;49.540;11.932;2024-01-27T00:59:37;98467.66;;;3.53;100.00
11038;BME280;5572;49.540;11.932;2024-01-27T01:02:09;98466.63;;;3.54;100.00
11038;BME280;5572;49.540;11.932;2024-01-27T01:04:39;98478.56;;;3.58;100.00
11038;BME280;5572;49.540;11.932;2024-01-27T01:07:09;98471.50;;;3.44;100.00
11038;BME280;5572;49.540;11.932;2024-01-27T01:09:39;98470.09;;;3.48;100.00
11038;BME280;5572;49.540;11.932;2024-01-27T01:12:11;98485.91;;;3.43;100.00
11038;BME280;5572;49.540;11.932;2024-01-27T01:14:46;98475.03;;;3.45;100.00
11038;BME280;5572;49.540;11.932;2024-01-27T01:17:17;98481.19;;;3.45;100.00
11038;BME280;5572;49.540;11.932;2024-01-27T01:19:46;98490.03;;;3.46;100.00
11038;BME280;5572;49.540;11.932;2024-01-27T01:22:19;98492.41;;;3.35;100.00
11038;BME280;5572;49.540;11.932;2024-01-27T01:24:54;98490.00;;;3.39;100.00
11038;BME280;5572;49.540;11.932;2024-01-27T01:27:32;98501.59;;;3.19;100.00
11038;BME280;5572;49.540;11.932;2024-01-27T01:30:18;98489.53;;;3.30;100.00
11038;BME280;5572;49.540;11.932;2024-01-27T01:32:53;98484.59;;;3.33;100.00
11038;BME280;5572;49.540;11.932;2024-01-27T01:35:25;98480.50;;;3.31;100.00
11038;BME280;5572;49.540;11.932;2024-01-27T01:38:03;98483.16;;;3.31;100.00
11038;BME280;5572;49.540;11.932;2024-01-27T01:40:34;98483.34;;;3.23;100.00
11038;BME280;5572;49.540;11.932;2024-01-27T01:43:02;98484.94;;;3.17;100.00
11038;BME280;5572;49.540;11.932;2024-01-27T01:45:31;98487.13;;;3.07;100.00
11038;BME280;5572;49.540;11.932;2024-01-27T01:48:00;98477.00;;;2.96;100.00
11038;BME280;5572;49.540;11.932;2024-01-27T01:50:38;98477.41;;;3.00;100.00
11038;BME280;5572;49.540;11.932;2024-01-27T01:53:08;98473.09;;;2.99;100.00
11038;BME280;5572;49.540;11.932;2024-01-27T01:55:40;98474.38;;;3.03;100.00
11038;BME280;5572;49.540;11.932;2024-01-27T01:58:09;98481.41;;;2.83;100.00
11038;BME280;5572;49.540;11.932;2024-01-27T02:00:40;98495.19;;;2.86;100.00
11038;BME280;5572;49.540;11.932;2024-01-27T02:03:12;98496.91;;;2.94;100.00
11038;BME280;5572;49.540;11.932;2024-01-27T02:05:42;98497.28;;;2.91;100.00
11038;BME280;5572;49.540;11.932;2024-01-27T02:08:14;98505.66;;;2.88;100.00
11038;BME280;5572;49.540;11.932;2024-01-27T02:10:43;98506.91;;;2.85;100.00
11038;BME280;5572;49.540;11.932;2024-01-27T02:13:17;98508.59;;;2.93;100.00
11038;BME280;5572;49.540;11.932;2024-01-27T02:15:52;98507.31;;;2.89;100.00
11038;BME280;5572;49.540;11.932;2024-01-27T02:18:23;98516.19;;;2.89;100.00
11038;BME280;5572;49.540;11.932;2024-01-27T02:20:52;98511.22;;;2.86;100.00
11038;BME280;5572;49.540;11.932;2024-01-27T02:23:20;98526.91;;;2.75;100.00
11038;BME280;5572;49.540;11.932;2024-01-27T02:25:50;98514.53;;;2.88;100.00
11038;BME280;5572;49.540;11.932;2024-01-27T02:28:18;98511.81;;;2.82;100.00
11038;BME280;5572;49.540;11.932;2024-01-27T02:30:46;98527.97;;;2.74;100.00
11038;BME280;5572;49.540;11.932;2024-01-27T02:33:14;98522.03;;;2.78;100.00
11038;BME280;5572;49.540;11.932;2024-01-27T02:35:42;98535.19;;;2.59;100.00
11038;BME280;5572;49.540;11.932;2024-01-27T02:38:10;98539.91;;;2.57;100.00
11038;BME280;5572;49.540;11.932;2024-01-27T02:40:38;98526.41;;;2.65;100.00
11038;BME280;5572;49.540;11.932;2024-01-27T02:43:08;98541.81;;;2.63;100.00
11038;BME280;5572;49.540;11.932;2024-01-27T02:45:36;98543.84;;;2.61;100.00
11038;BME280;5572;49.540;11.932;2024-01-27T02:48:04;98544.41;;;2.56;100.00
11038;BME280;5572;49.540;11.932;2024-01-27T02:50:32;98547.47;;;2.53;100.00
11038;BME280;5572;49.540;11.932;2024-01-27T02:53:01;98543.47;;;2.64;100.00
11038;BME280;5572;49.540;11.932;2024-01-27T02:55:28;98550.00;;;2.61;100.00
11038;BME280;5572;49.540;11.932;2024-01-27T02:57:56;98549.19;;;2.61;100.00
11038;BME280;5572;49.540;11.932;2024-01-27T03:00:26;98546.31;;;2.62;100.00
11038;BME280;5572;49.540;11.932;2024-01-27T03:05:21;98551.00;;;2.81;100.00
11038;BME280;5572;49.540;11.932;2024-01-27T03:07:49;98567.53;;;2.70;100.00
11038;BME280;5572;49.540;11.932;2024-01-27T03:10:16;98583.44;;;2.78;100.00
11038;BME280;5572;49.540;11.932;2024-01-27T03:12:44;98589.16;;;2.75;100.00
11038;BME280;5572;49.540;11.932;2024-01-27T03:15:11;98597.38;;;2.74;100.00
11038;BME280;5572;49.540;11.932;2024-01-27T03:17:40;98607.97;;;2.67;100.00
11038;BME280;5572;49.540;11.932;2024-01-27T03:20:09;98615.22;;;2.73;100.00
11038;BME280;5572;49.540;11.932;2024-01-27T03:22:37;98616.00;;;2.67;100.00
11038;BME280;5572;49.540;11.932;2024-01-27T03:25:07;98612.88;;;2.64;100.00
11038;BME280;5572;49.540;11.932;2024-01-27T03:27:34;98616.00;;;2.67;100.00
11038;BME280;5572;49.540;11.932;2024-01-27T03:30:03;98632.78;;;2.47;100.00
11038;BME280;5572;49.540;11.932;2024-01-27T03:32:31;98637.84;;;2.56;100.00
11038;BME280;5572;49.540;11.932;2024-01-27T03:35:01;98650.91;;;2.52;100.00
11038;BME280;5572;49.540;11.932;2024-01-27T03:37:29;98659.38;;;2.41;100.00
11038;BME280;5572;49.540;11.932;2024-01-27T03:39:57;98666.88;;;2.16;100.00
11038;BME280;5572;49.540;11.932;2024-01-27T03:42:25;98669.00;;;2.06;100.00
11038;BME280;5572;49.540;11.932;2024-01-27T03:44:53;98663.84;;;2.19;100.00
11038;BME280;5572;49.540;11.932;2024-01-27T03:47:21;98662.09;;;2.26;100.00
11038;BME280;5572;49.540;11.932;2024-01-27T03:49:49;98667.50;;;2.33;100.00
11038;BME280;5572;49.540;11.932;2024-01-27T03:52:18;98668.06;;;2.28;100.00
11038;BME280;5572;49.540;11.932;2024-01-27T03:54:45;98677.19;;;2.19;100.00
11038;BME280;5572;49.540;11.932;2024-01-27T03:57:13;98679.59;;;2.14;100.00
11038;BME280;5572;49.540;11.932;2024-01-27T03:59:41;98681.72;;;2.04;100.00
11038;BME280;5572;49.540;11.932;2024-01-27T04:02:08;98697.31;;;1.93;100.00
11038;BME280;5572;49.540;11.932;2024-01-27T04:04:36;98684.00;;;2.07;100.00
11038;BME280;5572;49.540;11.932;2024-01-27T04:07:05;98691.84;;;2.09;100.00
11038;BME280;5572;49.540;11.932;2024-01-27T04:09:34;98690.78;;;2.10;100.00
11038;BME280;5572;49.540;11.932;2024-01-27T04:12:03;98695.13;;;2.11;100.00
11038;BME280;5572;49.540;11.932;2024-01-27T04:14:30;98709.94;;;1.99;100.00
11038;BME280;5572;49.540;11.932;2024-01-27T04:16:58;98716.19;;;1.91;100.00
11038;BME280;5572;49.540;11.932;2024-01-27T04:19:26;98716.63;;;1.95;100.00
11038;BME280;5572;49.540;11.932;2024-01-27T04:21:54;98711.75;;;1.98;100.00
11038;BME280;5572;49.540;11.932;2024-01-27T04:24:22;98734.81;;;1.77;100.00
11038;BME280;5572;49.540;11.932;2024-01-27T04:26:51;98734.81;;;1.77;100.00
11038;BME280;5572;49.540;11.932;2024-01-27T04:29:18;98729.56;;;1.69;100.00
11038;BME280;5572;49.540;11.932;2024-01-27T04:31:46;98741.25;;;1.68;100.00
11038;BME280;5572;49.540;11.932;2024-01-27T04:34:14;98748.47;;;1.60;100.00
11038;BME280;5572;49.540;11.932;2024-01-27T04:36:42;98756.13;;;1.63;100.00
11038;BME280;5572;49.540;11.932;2024-01-27T04:39:09;98760.22;;;1.51;100.00
11038;BME280;5572;49.540;11.932;2024-01-27T04:41:41;98770.34;;;1.33;100.00
11038;BME280;5572;49.540;11.932;2024-01-27T04:44:11;98774.94;;;1.39;100.00
11038;BME280;5572;49.540;11.932;2024-01-27T04:46:39;98773.13;;;1.39;100.00
11038;BME280;5572;49.540;11.932;2024-01-27T04:49:07;98799.31;;;1.05;100.00
11038;BME280;5572;49.540;11.932;2024-01-27T04:51:35;98794.03;;;0.97;100.00
11038;BME280;5572;49.540;11.932;2024-01-27T04:54:03;98804.69;;;0.97;100.00
11038;BME280;5572;49.540;11.932;2024-01-27T04:56:30;98795.13;;;1.11;100.00
11038;BME280;5572;49.540;11.932;2024-01-27T04:58:58;98791.19;;;1.29;100.00
11038;BME280;5572;49.540;11.932;2024-01-27T05:01:28;98797.66;;;1.27;100.00
11038;BME280;5572;49.540;11.932;2024-01-27T05:03:55;98811.44;;;1.08;100.00
11038;BME280;5572;49.540;11.932;2024-01-27T05:06:23;98811.09;;;1.11;100.00
11038;BME280;5572;49.540;11.932;2024-01-27T05:08:51;98807.13;;;1.07;100.00
11038;BME280;5572;49.540;11.932;2024-01-27T05:11:25;98802.13;;;1.12;100.00
11038;BME280;5572;49.540;11.932;2024-01-27T05:13:54;98803.91;;;1.19;100.00
11038;BME280;5572;49.540;11.932;2024-01-27T05:16:21;98786.13;;;1.34;100.00
11038;BME280;5572;49.540;11.932;2024-01-27T05:18:51;98794.47;;;1.31;100.00
11038;BME280;5572;49.540;11.932;2024-01-27T05:21:19;98809.66;;;1.31;100.00
11038;BME280;5572;49.540;11.932;2024-01-27T05:23:47;98798.22;;;1.45;100.00
11038;BME280;5572;49.540;11.932;2024-01-27T05:26:15;98808.63;;;1.32;100.00
11038;BME280;5572;49.540;11.932;2024-01-27T05:28:42;98822.69;;;1.18;100.00
11038;BME280;5572;49.540;11.932;2024-01-27T05:31:11;98828.03;;;1.18;100.00
11038;BME280;5572;49.540;11.932;2024-01-27T05:33:38;98821.41;;;1.14;100.00
11038;BME280;5572;49.540;11.932;2024-01-27T05:36:09;98830.94;;;1.08;100.00
11038;BME280;5572;49.540;11.932;2024-01-27T05:38:36;98839.50;;;0.88;100.00
11038;BME280;5572;49.540;11.932;2024-01-27T05:41:05;98843.25;;;1.09;100.00
11038;BME280;5572;49.540;11.932;2024-01-27T05:43:33;98838.63;;;0.95;100.00
11038;BME280;5572;49.540;11.932;2024-01-27T05:46:02;98845.16;;;0.93;100.00
11038;BME280;5572;49.540;11.932;2024-01-27T05:48:30;98850.09;;;0.96;100.00
11038;BME280;5572;49.540;11.932;2024-01-27T05:51:00;98850.63;;;0.99;100.00
11038;BME280;5572;49.540;11.932;2024-01-27T05:53:29;98857.16;;;0.81;100.00
11038;BME280;5572;49.540;11.932;2024-01-27T05:55:57;98851.50;;;0.84;100.00
11038;BME280;5572;49.540;11.932;2024-01-27T05:58:26;98867.38;;;0.62;100.00
11038;BME280;5572;49.540;11.932;2024-01-27T06:00:54;98872.53;;;0.55;100.00
11038;BME280;5572;49.540;11.932;2024-01-27T06:03:22;98864.06;;;0.60;100.00
11038;BME280;5572;49.540;11.932;2024-01-27T06:05:50;98877.97;;;0.78;100.00
11038;BME280;5572;49.540;11.932;2024-01-27T06:08:17;98879.53;;;0.64;100.00
11038;BME280;5572;49.540;11.932;2024-01-27T06:10:47;98872.19;;;0.74;100.00
11038;BME280;5572;49.540;11.932;2024-01-27T06:13:15;98868.81;;;0.80;100.00
11038;BME280;5572;49.540;11.932;2024-01-27T06:15:43;98863.13;;;0.91;100.00
11038;BME280;5572;49.540;11.932;2024-01-27T06:18:11;98862.50;;;0.81;100.00
11038;BME280;5572;49.540;11.932;2024-01-27T06:20:39;98885.22;;;0.53;100.00
11038;BME280;5572;49.540;11.932;2024-01-27T06:23:07;98880.16;;;0.74;100.00
11038;BME280;5572;49.540;11.932;2024-01-27T06:25:35;98899.28;;;0.78;100.00
11038;BME280;5572;49.540;11.932;2024-01-27T06:28:06;98908.44;;;0.67;100.00
11038;BME280;5572;49.540;11.932;2024-01-27T06:30:34;98902.44;;;0.73;100.00
11038;BME280;5572;49.540;11.932;2024-01-27T06:33:02;98913.13;;;0.57;100.00
11038;BME280;5572;49.540;11.932;2024-01-27T06:35:29;98913.41;;;0.78;100.00
11038;BME280;5572;49.540;11.932;2024-01-27T06:37:57;98917.34;;;0.90;100.00
11038;BME280;5572;49.540;11.932;2024-01-27T06:40:25;98919.06;;;0.83;100.00
11038;BME280;5572;49.540;11.932;2024-01-27T06:42:54;98917.03;;;0.93;100.00
11038;BME280;5572;49.540;11.932;2024-01-27T06:45:23;98904.84;;;0.98;100.00
11038;BME280;5572;49.540;11.932;2024-01-27T06:47:51;98903.00;;;0.99;100.00
11038;BME280;5572;49.540;11.932;2024-01-27T06:50:18;98903.50;;;1.02;100.00
11038;BME280;5572;49.540;11.932;2024-01-27T06:52:47;98914.28;;;1.09;100.00
11038;BME280;5572;49.540;11.932;2024-01-27T06:55:15;98910.28;;;1.13;100.00
11038;BME280;5572;49.540;11.932;2024-01-27T06:57:43;98928.44;;;1.09;100.00
11038;BME280;5572;49.540;11.932;2024-01-27T07:00:12;98922.72;;;1.20;100.00
11038;BME280;5572;49.540;11.932;2024-01-27T07:02:42;98928.31;;;1.33;100.00
11038;BME280;5572;49.540;11.932;2024-01-27T07:05:11;98933.84;;;1.32;100.00
11038;BME280;5572;49.540;11.932;2024-01-27T07:07:40;98930.41;;;1.46;100.00
11038;BME280;5572;49.540;11.932;2024-01-27T07:10:08;98934.41;;;1.50;100.00
11038;BME280;5572;49.540;11.932;2024-01-27T07:12:36;98926.47;;;1.42;100.00
11038;BME280;5572;49.540;11.932;2024-01-27T07:15:05;98923.75;;;1.50;100.00
11038;BME280;5572;49.540;11.932;2024-01-27T07:17:33;98930.78;;;1.43;100.00
11038;BME280;5572;49.540;11.932;2024-01-27T07:20:03;98949.56;;;1.49;100.00
11038;BME280;5572;49.540;11.932;2024-01-27T07:22:32;98948.09;;;1.39;100.00
11038;BME280;5572;49.540;11.932;2024-01-27T07:35:10;98909.31;;;1.67;100.00
11038;BME280;5572;49.540;11.932;2024-01-27T07:37:40;98910.97;;;1.67;100.00
11038;BME280;5572;49.540;11.932;2024-01-27T07:40:10;98906.13;;;1.93;100.00
11038;BME280;5572;49.540;11.932;2024-01-27T07:42:39;98917.38;;;1.81;100.00
11038;BME280;5572;49.540;11.932;2024-01-27T07:45:08;98912.09;;;1.95;100.00
11038;BME280;5572;49.540;11.932;2024-01-27T07:47:37;98917.63;;;1.94;100.00
11038;BME280;5572;49.540;11.932;2024-01-27T07:50:09;98919.34;;;2.09;100.00
11038;BME280;5572;49.540;11.932;2024-01-27T07:52:49;98920.00;;;2.11;100.00
11038;BME280;5572;49.540;11.932;2024-01-27T07:55:20;98927.66;;;2.14;100.00
11038;BME280;5572;49.540;11.932;2024-01-27T07:57:48;98928.66;;;2.13;100.00
11038;BME280;5572;49.540;11.932;2024-01-27T08:00:18;98928.22;;;2.24;100.00
11038;BME280;5572;49.540;11.932;2024-01-27T08:02:46;98930.28;;;2.37;100.00
11038;BME280;5572;49.540;11.932;2024-01-27T08:05:17;98931.38;;;2.28;100.00
11038;BME280;5572;49.540;11.932;2024-01-27T08:07:46;98937.97;;;2.32;100.00
11038;BME280;5572;49.540;11.932;2024-01-27T08:10:16;98943.06;;;2.41;100.00
11038;BME280;5572;49.540;11.932;2024-01-27T08:12:44;98950.66;;;2.52;100.00
11038;BME280;5572;49.540;11.932;2024-01-27T08:15:12;98942.66;;;2.52;100.00
11038;BME280;5572;49.540;11.932;2024-01-27T08:17:41;98951.94;;;2.56;100.00
11038;BME280;5572;49.540;11.932;2024-01-27T08:20:11;98949.81;;;2.52;100.00
11038;BME280;5572;49.540;11.932;2024-01-27T08:22:41;98945.59;;;2.71;100.00
11038;BME280;5572;49.540;11.932;2024-01-27T08:25:10;98958.22;;;2.63;100.00
11038;BME280;5572;49.540;11.932;2024-01-27T08:27:39;98968.13;;;2.54;100.00
11038;BME280;5572;49.540;11.932;2024-01-27T08:30:09;98967.81;;;2.72;100.00
11038;BME280;5572;49.540;11.932;2024-01-27T08:32:38;98961.09;;;2.76;100.00
11038;BME280;5572;49.540;11.932;2024-01-27T08:35:07;98968.00;;;2.85;100.00
11038;BME280;5572;49.540;11.932;2024-01-27T08:37:36;98958.28;;;2.92;100.00
11038;BME280;5572;49.540;11.932;2024-01-27T08:40:08;98954.94;;;2.90;100.00
11038;BME280;5572;49.540;11.932;2024-01-27T08:42:38;98948.78;;;3.04;100.00
11038;BME280;5572;49.540;11.932;2024-01-27T08:45:07;98949.81;;;3.03;100.00
11038;BME280;5572;49.540;11.932;2024-01-27T08:47:36;98938.44;;;3.30;100.00
11038;BME280;5572;49.540;11.932;2024-01-27T08:53:27;98953.13;;;3.34;100.00
11038;BME280;5572;49.540;11.932;2024-01-27T09:15:19;98949.56;;;3.97;100.00
11038;BME280;5572;49.540;11.932;2024-01-27T09:17:47;98893.78;;;6.03;100.00
11038;BME280;5572;49.540;11.932;2024-01-27T09:20:15;98894.75;;;9.17;100.00
11038;BME280;5572;49.540;11.932;2024-01-27T09:22:44;98848.19;;;10.16;100.00
11038;BME280;5572;49.540;11.932;2024-01-27T09:25:12;98787.19;;;11.22;100.00
11038;BME280;5572;49.540;11.932;2024-01-27T09:27:40;98784.06;;;12.58;100.00
11038;BME280;5572;49.540;11.932;2024-01-27T09:30:07;98788.00;;;12.34;100.00
11038;BME280;5572;49.540;11.932;2024-01-27T09:32:37;98819.34;;;10.73;100.00
11038;BME280;5572;49.540;11.932;2024-01-27T09:35:04;98777.97;;;12.18;100.00
11038;BME280;5572;49.540;11.932;2024-01-27T09:37:31;98808.31;;;12.32;100.00
11038;BME280;5572;49.540;11.932;2024-01-27T09:39:59;98874.78;;;11.16;100.00
11038;BME280;5572;49.540;11.932;2024-01-27T09:42:28;98864.94;;;11.61;100.00
11038;BME280;5572;49.540;11.932;2024-01-27T09:44:55;98937.69;;;10.08;100.00
11038;BME280;5572;49.540;11.932;2024-01-27T09:47:23;98915.00;;;10.90;100.00
11038;BME280;5572;49.540;11.932;2024-01-27T09:49:52;98836.03;;;13.37;100.00
11038;BME280;5572;49.540;11.932;2024-01-27T09:52:19;98881.34;;;12.99;100.00
11038;BME280;5572;49.540;11.932;2024-01-27T09:54:47;98905.31;;;11.74;100.00
11038;BME280;5572;49.540;11.932;2024-01-27T10:00:10;98820.03;;;13.03;100.00
11038;BME280;5572;49.540;11.932;2024-01-27T10:02:55;98907.91;;;9.78;100.00
11038;BME280;5572;49.540;11.932;2024-01-27T10:05:25;99008.78;;;7.94;100.00
11038;BME280;5572;49.540;11.932;2024-01-27T10:10:57;99130.44;;;5.73;100.00
11038;BME280;5572;49.540;11.932;2024-01-27T10:13:24;99107.09;;;6.48;100.00
11038;BME280;5572;49.540;11.932;2024-01-27T10:15:59;99109.38;;;6.51;100.00
11038;BME280;5572;49.540;11.932;2024-01-27T10:18:29;99121.75;;;6.05;100.00
11038;BME280;5572;49.540;11.932;2024-01-27T10:21:05;99131.19;;;5.67;100.00
11038;BME280;5572;49.540;11.932;2024-01-27T10:23:39;99130.53;;;5.86;100.00
11038;BME280;5572;49.540;11.932;2024-01-27T10:29:02;99131.75;;;5.56;100.00
11038;BME280;5572;49.540;11.932;2024-01-27T10:31:30;99122.06;;;5.62;100.00
11038;BME280;5572;49.540;11.932;2024-01-27T10:33:57;99121.66;;;5.58;100.00
11038;BME280;5572;49.540;11.932;2024-01-27T10:36:25;99118.00;;;5.66;100.00
11038;BME280;5572;49.540;11.932;2024-01-27T10:38:52;99118.31;;;5.77;100.00
11038;BME280;5572;49.540;11.932;2024-01-27T10:41:21;99117.03;;;5.46;100.00
11038;BME280;5572;49.540;11.932;2024-01-27T10:43:48;99097.09;;;5.82;100.00
11038;BME280;5572;49.540;11.932;2024-01-27T10:46:16;99086.75;;;5.79;100.00
11038;BME280;5572;49.540;11.932;2024-01-27T10:48:45;99082.81;;;5.82;100.00
11038;BME280;5572;49.540;11.932;2024-01-27T10:51:15;99084.53;;;5.62;100.00
11038;BME280;5572;49.540;11.932;2024-01-27T10:53:45;99068.63;;;5.94;100.00
11038;BME280;5572;49.540;11.932;2024-01-27T10:56:15;99070.88;;;5.91;100.00
11038;BME280;5572;49.540;11.932;2024-01-27T10:58:42;99055.88;;;6.02;100.00
11038;BME280;5572;49.540;11.932;2024-01-27T11:01:12;99063.16;;;5.75;100.00
11038;BME280;5572;49.540;11.932;2024-01-27T11:03:41;99048.03;;;6.01;100.00
11038;BME280;5572;49.540;11.932;2024-01-27T11:06:17;99052.81;;;6.05;100.00
11038;BME280;5572;49.540;11.932;2024-01-27T11:08:55;99059.59;;;6.01;100.00
11038;BME280;5572;49.540;11.932;2024-01-27T11:11:26;99040.56;;;6.50;100.00
11038;BME280;5572;49.540;11.932;2024-01-27T11:14:02;99063.63;;;6.25;100.00
11038;BME280;5572;49.540;11.932;2024-01-27T11:16:35;99038.16;;;6.93;100.00
11038;BME280;5572;49.540;11.932;2024-01-27T11:19:10;99040.75;;;6.55;100.00
11038;BME280;5572;49.540;11.932;2024-01-27T11:21:47;99028.22;;;6.94;100.00
11038;BME280;5572;49.540;11.932;2024-01-27T11:24:24;99030.31;;;7.18;100.00
11038;BME280;5572;49.540;11.932;2024-01-27T11:27:02;99035.66;;;6.73;100.00
11038;BME280;5572;49.540;11.932;2024-01-27T11:29:29;99031.94;;;7.06;100.00
11038;BME280;5572;49.540;11.932;2024-01-27T11:32:00;99035.03;;;7.09;100.00
11038;BME280;5572;49.540;11.932;2024-01-27T11:34:40;99026.34;;;7.01;100.00
11038;BME280;5572;49.540;11.932;2024-01-27T11:37:15;99038.34;;;6.85;100.00
11038;BME280;5572;49.540;11.932;2024-01-27T12:10:53;99002.97;;;7.14;100.00
11038;BME280;5572;49.540;11.932;2024-01-27T12:13:35;98979.72;;;7.59;100.00
11038;BME280;5572;49.540;11.932;2024-01-27T12:16:03;98994.81;;;7.66;100.00
11038;BME280;5572;49.540;11.932;2024-01-27T12:18:31;98998.19;;;7.42;100.00
11038;BME280;5572;49.540;11.932;2024-01-27T12:20:59;98991.28;;;7.72;100.00
11038;BME280;5572;49.540;11.932;2024-01-27T12:23:27;98997.97;;;7.37;100.00
11038;BME280;5572;49.540;11.932;2024-01-27T12:25:57;98988.84;;;7.51;100.00
11038;BME280;5572;49.540;11.932;2024-01-27T12:28:26;98978.66;;;7.66;100.00
11038;BME280;5572;49.540;11.932;2024-01-27T12:30:55;98965.56;;;7.76;100.00
11038;BME280;5572;49.540;11.932;2024-01-27T12:33:25;98968.88;;;7.84;100.00
11038;BME280;5572;49.540;11.932;2024-01-27T12:35:56;98963.91;;;7.81;100.00
11038;BME280;5572;49.540;11.932;2024-01-27T12:38:27;98952.19;;;8.07;100.00
11038;BME280;5572;49.540;11.932;2024-01-27T12:40:59;98944.31;;;8.05;100.00
11038;BME280;5572;49.540;11.932;2024-01-27T12:43:30;98955.09;;;7.55;100.00
11038;BME280;5572;49.540;11.932;2024-01-27T12:45:58;98938.63;;;7.82;100.00
11038;BME280;5572;49.540;11.932;2024-01-27T12:48:31;98932.88;;;8.23;100.00
11038;BME280;5572;49.540;11.932;2024-01-27T12:50:59;98936.56;;;7.84;100.00
11038;BME280;5572;49.540;11.932;2024-01-27T12:53:29;98936.53;;;7.91;100.00
11038;BME280;5572;49.540;11.932;2024-01-27T12:56:04;98936.53;;;7.91;100.00
11038;BME280;5572;49.540;11.932;2024-01-27T12:58:36;98923.34;;;8.14;100.00
11038;BME280;5572;49.540;11.932;2024-01-27T13:01:06;98908.66;;;8.10;100.00
11038;BME280;5572;49.540;11.932;2024-01-27T13:03:33;98921.41;;;7.90;100.00
11038;BME280;5572;49.540;11.932;2024-01-27T13:06:02;98917.00;;;8.02;100.00
11038;BME280;5572;49.540;11.932;2024-01-27T13:08:30;98928.50;;;7.78;100.00
11038;BME280;5572;49.540;11.932;2024-01-27T13:10:58;98943.91;;;8.08;100.00
11038;BME280;5572;49.540;11.932;2024-01-27T13:13:27;98942.25;;;8.07;100.00
11038;BME280;5572;49.540;11.932;2024-01-27T13:15:55;98949.31;;;8.02;100.00
11038;BME280;5572;49.540;11.932;2024-01-27T13:18:23;98946.44;;;7.97;100.00
11038;BME280;5572;49.540;11.932;2024-01-27T13:20:51;98957.38;;;7.52;100.00
11038;BME280;5572;49.540;11.932;2024-01-27T13:23:20;98952.56;;;7.73;100.00
11038;BME280;5572;49.540;11.932;2024-01-27T14:02:07;98953.59;;;7.78;100.00
11038;BME280;5572;49.540;11.932;2024-01-27T14:04:49;98930.28;;;7.97;100.00
11038;BME280;5572;49.540;11.932;2024-01-27T14:07:34;98929.84;;;7.50;100.00
11038;BME280;5572;49.540;11.932;2024-01-27T14:10:11;98948.34;;;7.33;100.00
11038;BME280;5572;49.540;11.932;2024-01-27T14:12:52;98948.50;;;7.45;100.00
11038;BME280;5572;49.540;11.932;2024-01-27T14:15:41;98950.56;;;7.43;100.00
11038;BME280;5572;49.540;11.932;2024-01-27T14:18:15;98967.59;;;7.11;100.00
11038;BME280;5572;49.540;11.932;2024-01-27T14:20:50;98966.97;;;7.22;100.00
11038;BME280;5572;49.540;11.932;2024-01-27T14:23:25;98959.13;;;7.27;100.00
11038;BME280;5572;49.540;11.932;2024-01-27T14:26:04;98957.28;;;7.08;100.00
11038;BME280;5572;49.540;11.932;2024-01-27T14:28:42;98965.75;;;6.98;100.00
11038;BME280;5572;49.540;11.932;2024-01-27T14:31:11;98956.44;;;7.14;100.00
11038;BME280;5572;49.540;11.932;2024-01-27T14:33:47;98954.38;;;6.96;100.00
11038;BME280;5572;49.540;11.932;2024-01-27T14:36:17;98949.63;;;6.92;100.00
11038;BME280;5572;49.540;11.932;2024-01-27T14:38:48;98965.97;;;6.90;100.00
11038;BME280;5572;49.540;11.932;2024-01-27T14:41:16;98961.84;;;6.82;100.00
11038;BME280;5572;49.540;11.932;2024-01-27T14:43:47;98951.69;;;7.03;100.00
11038;BME280;5572;49.540;11.932;2024-01-27T14:46:18;98953.97;;;7.12;100.00
11038;BME280;5572;49.540;11.932;2024-01-27T14:48:48;98955.22;;;6.90;100.00
11038;BME280;5572;49.540;11.932;2024-01-27T14:51:19;98957.50;;;6.93;100.00
11038;BME280;5572;49.540;11.932;2024-01-27T14:53:48;98949.22;;;6.88;100.00
11038;BME280;5572;49.540;11.932;2024-01-27T14:56:16;98960.59;;;6.84;100.00
11038;BME280;5572;49.540;11.932;2024-01-27T14:58:44;98964.75;;;6.67;100.00
11038;BME280;5572;49.540;11.932;2024-01-27T15:01:17;98969.09;;;6.68;100.00
11038;BME280;5572;49.540;11.932;2024-01-27T15:03:48;98971.34;;;6.65;100.00
11038;BME280;5572;49.540;11.932;2024-01-27T15:06:16;98970.69;;;6.43;100.00